createdAt,value
2019-01-12T00:01:01.929Z,78.09
2019-01-12T00:03:31.482Z,78.08
2019-01-12T00:06:01.186Z,78.10
2019-01-12T00:08:30.898Z,78.12
2019-01-12T00:11:00.570Z,78.03
2019-01-12T00:13:30.180Z,78.01
2019-01-12T00:15:59.960Z,78.03
2019-01-12T00:18:29.714Z,78.07
2019-01-12T00:20:59.366Z,78.10
2019-01-12T00:23:29.108Z,78.04
2019-01-12T00:25:58.651Z,77.91
2019-01-12T00:28:28.303Z,78.12
2019-01-12T00:30:58.215Z,78.12
2019-01-12T00:33:27.810Z,78.00
2019-01-12T00:35:57.549Z,77.90
2019-01-12T00:38:29.354Z,77.83
2019-01-12T00:40:58.841Z,78.27
2019-01-12T00:43:28.689Z,78.68
2019-01-12T00:45:58.441Z,78.90
2019-01-12T00:48:28.175Z,78.82
2019-01-12T00:50:58.008Z,78.56
2019-01-12T00:53:27.593Z,78.44
2019-01-12T00:55:57.344Z,78.45
2019-01-12T00:58:27.244Z,78.48
2019-01-12T01:00:56.797Z,78.51
2019-01-12T01:03:26.461Z,78.55
2019-01-12T01:05:56.169Z,78.48
2019-01-12T01:08:25.674Z,78.37
2019-01-12T01:10:55.221Z,78.58
2019-01-12T01:13:24.959Z,78.73
2019-01-12T01:15:54.602Z,78.57
2019-01-12T01:18:24.290Z,78.46
2019-01-12T01:20:54.130Z,78.54
2019-01-12T01:23:23.691Z,78.74
2019-01-12T01:25:53.219Z,78.84
2019-01-12T01:28:23.150Z,78.90
2019-01-12T01:30:52.729Z,78.87
2019-01-12T01:33:27.935Z,78.77
2019-01-12T01:35:54.040Z,78.66
2019-01-12T01:38:23.689Z,78.72
2019-01-12T01:40:53.672Z,78.90
2019-01-12T01:43:23.624Z,78.94
2019-01-12T01:45:53.432Z,79.18
2019-01-12T01:48:23.179Z,79.49
2019-01-12T01:50:52.809Z,79.70
2019-01-12T01:53:22.431Z,79.76
2019-01-12T01:55:52.095Z,79.78
2019-01-12T01:58:21.807Z,79.64
2019-01-12T02:00:51.368Z,79.48
2019-01-12T02:03:20.822Z,79.44
2019-01-12T02:05:50.861Z,79.31
2019-01-12T02:08:20.407Z,79.16
2019-01-12T02:10:49.989Z,79.01
2019-01-12T02:13:19.720Z,78.97
2019-01-12T02:15:49.348Z,78.97
2019-01-12T02:18:18.990Z,78.98
2019-01-12T02:20:48.748Z,79.07
2019-01-12T02:23:18.240Z,79.27
2019-01-12T02:25:47.749Z,79.37
2019-01-12T02:28:17.522Z,79.42
2019-01-12T02:30:47.192Z,79.45
2019-01-12T02:33:16.729Z,79.43
2019-01-12T02:35:46.511Z,79.44
2019-01-12T02:38:16.042Z,79.44
2019-01-12T02:40:45.677Z,79.35
2019-01-12T02:43:15.496Z,79.32
2019-01-12T02:45:45.071Z,79.29
2019-01-12T02:48:14.642Z,79.18
2019-01-12T02:50:44.503Z,79.14
2019-01-12T02:53:14.141Z,79.05
2019-01-12T02:55:43.789Z,79.03
2019-01-12T02:58:13.640Z,79.17
2019-01-12T03:00:43.211Z,79.21
2019-01-12T03:03:12.810Z,79.11
2019-01-12T03:05:42.644Z,78.96
2019-01-12T03:08:12.430Z,79.37
2019-01-12T03:10:42.164Z,79.85
2019-01-12T03:13:11.774Z,80.16
2019-01-12T03:15:41.665Z,80.40
2019-01-12T03:18:11.559Z,80.66
2019-01-12T03:20:41.564Z,80.66
2019-01-12T03:23:11.416Z,80.93
2019-01-12T03:25:41.096Z,81.11
2019-01-12T03:28:10.919Z,81.21
2019-01-12T03:30:40.580Z,81.22
2019-01-12T03:33:10.370Z,81.40
2019-01-12T03:35:40.362Z,81.55
2019-01-12T03:38:10.047Z,81.64
2019-01-12T03:40:39.856Z,81.72
2019-01-12T03:43:09.547Z,81.83
2019-01-12T03:45:39.366Z,81.84
2019-01-12T03:48:09.103Z,81.88
2019-01-12T03:50:38.948Z,82.06
2019-01-12T03:53:09.119Z,82.00
2019-01-12T03:55:38.863Z,82.21
2019-01-12T03:58:09.153Z,82.08
2019-01-12T04:00:38.961Z,82.63
2019-01-12T04:03:08.527Z,82.80
2019-01-12T04:05:38.365Z,82.84
2019-01-12T04:08:09.182Z,82.81
2019-01-12T04:10:39.353Z,82.73
2019-01-12T04:13:09.518Z,82.76
2019-01-12T04:15:39.299Z,83.05
2019-01-12T04:18:09.244Z,83.12
2019-01-12T04:20:38.955Z,83.09
2019-01-12T04:23:08.939Z,83.20
2019-01-12T04:25:38.806Z,83.16
2019-01-12T04:28:08.524Z,83.21
2019-01-12T04:30:38.474Z,83.29
2019-01-12T04:33:08.277Z,83.27
2019-01-12T04:35:37.987Z,83.07
2019-01-12T04:38:07.845Z,82.85
2019-01-12T04:40:37.777Z,82.75
2019-01-12T04:43:07.370Z,82.70
2019-01-12T04:45:37.093Z,82.71
2019-01-12T04:48:07.064Z,82.75
2019-01-12T04:50:36.651Z,82.75
2019-01-12T04:53:06.280Z,82.65
2019-01-12T04:55:41.193Z,82.68
2019-01-12T04:58:07.306Z,82.90
2019-01-12T05:00:37.024Z,83.14
2019-01-12T05:03:06.818Z,83.08
2019-01-12T05:05:36.596Z,83.03
2019-01-12T05:08:06.529Z,82.96
2019-01-12T05:10:36.075Z,82.83
2019-01-12T05:13:05.630Z,82.94
2019-01-12T05:15:35.337Z,83.08
2019-01-12T05:18:05.004Z,83.03
2019-01-12T05:20:34.704Z,83.05
2019-01-12T05:23:04.694Z,83.13
2019-01-12T05:25:34.246Z,83.30
2019-01-12T05:28:03.914Z,83.49
2019-01-12T05:30:33.819Z,83.76
2019-01-12T05:33:03.431Z,83.94
2019-01-12T05:35:33.558Z,83.94
2019-01-12T05:38:03.433Z,84.04
2019-01-12T05:40:33.012Z,84.23
2019-01-12T05:43:02.780Z,84.19
2019-01-12T05:45:32.560Z,84.08
2019-01-12T05:48:02.720Z,84.05
2019-01-12T05:50:32.644Z,84.02
2019-01-12T05:53:02.542Z,84.00
2019-01-12T05:55:32.352Z,83.96
2019-01-12T05:58:02.164Z,84.03
2019-01-12T06:00:31.851Z,83.97
2019-01-12T06:03:01.418Z,83.96
2019-01-12T06:05:31.112Z,83.96
2019-01-12T06:08:00.893Z,83.93
2019-01-12T06:10:30.473Z,83.88
2019-01-12T06:13:00.243Z,83.76
2019-01-12T06:15:30.248Z,83.84
2019-01-12T06:17:59.972Z,83.89
2019-01-12T06:20:29.611Z,83.81
2019-01-12T06:22:59.457Z,83.65
2019-01-12T06:25:29.248Z,83.64
2019-01-12T06:27:58.898Z,83.53
2019-01-12T06:30:28.805Z,83.37
2019-01-12T06:32:58.374Z,83.29
2019-01-12T06:35:28.020Z,83.23
2019-01-12T06:37:57.751Z,83.50
2019-01-12T06:40:27.332Z,83.80
2019-01-12T06:42:57.012Z,84.08
2019-01-12T06:45:26.883Z,84.35
2019-01-12T06:47:56.560Z,84.56
2019-01-12T06:50:26.265Z,84.69
2019-01-12T06:52:56.012Z,84.65
2019-01-12T06:55:25.576Z,84.62
2019-01-12T06:57:55.114Z,84.72
2019-01-12T07:00:24.893Z,84.82
2019-01-12T07:02:54.641Z,84.94
2019-01-12T07:05:24.193Z,84.94
2019-01-12T07:07:54.078Z,84.95
2019-01-12T07:10:23.723Z,85.18
2019-01-12T07:12:53.258Z,85.17
2019-01-12T07:15:23.224Z,85.06
2019-01-12T07:17:52.796Z,85.26
2019-01-12T07:20:22.360Z,85.14
2019-01-12T07:22:52.450Z,85.28
2019-01-12T07:25:21.967Z,85.52
2019-01-12T07:27:51.611Z,85.58
2019-01-12T07:30:23.213Z,85.57
2019-01-12T07:32:52.937Z,85.45
2019-01-12T07:35:22.450Z,85.41
2019-01-12T07:37:52.262Z,85.37
2019-01-12T07:40:21.913Z,85.38
2019-01-12T07:42:51.506Z,85.39
2019-01-12T07:45:21.318Z,85.46
2019-01-12T07:47:50.856Z,85.53
2019-01-12T07:50:20.874Z,85.52
2019-01-12T07:52:50.765Z,85.51
2019-01-12T07:55:20.465Z,85.42
2019-01-12T07:57:50.092Z,85.36
2019-01-12T08:00:21.761Z,85.52
2019-01-12T08:02:51.481Z,85.54
2019-01-12T08:05:22.175Z,85.57
2019-01-12T08:07:52.056Z,85.51
2019-01-12T08:10:27.098Z,85.49
2019-01-12T08:12:57.101Z,85.51
2019-01-12T08:15:27.009Z,85.54
2019-01-12T08:17:56.698Z,85.51
2019-01-12T08:20:26.469Z,85.50
2019-01-12T08:22:56.150Z,85.42
2019-01-12T08:25:25.994Z,85.55
2019-01-12T08:27:55.859Z,85.47
2019-01-12T08:30:25.634Z,85.41
2019-01-12T08:32:55.289Z,85.09
2019-01-12T08:35:24.947Z,85.14
2019-01-12T08:37:54.604Z,84.96
2019-01-12T08:40:24.363Z,85.02
2019-01-12T08:42:54.282Z,85.14
2019-01-12T08:45:23.998Z,85.19
2019-01-12T08:47:53.630Z,85.23
2019-01-12T08:50:23.519Z,85.28
2019-01-12T08:52:53.210Z,85.38
2019-01-12T08:55:22.973Z,85.37
2019-01-12T08:57:53.006Z,85.33
2019-01-12T09:00:23.528Z,85.30
2019-01-12T09:02:53.440Z,85.19
2019-01-12T09:05:23.242Z,85.20
2019-01-12T09:07:52.964Z,85.24
2019-01-12T09:10:23.428Z,85.13
2019-01-12T09:12:53.391Z,85.13
2019-01-12T09:15:24.669Z,85.15
2019-01-12T09:17:54.486Z,85.14
2019-01-12T09:20:24.189Z,85.11
2019-01-12T09:22:54.087Z,85.08
2019-01-12T09:25:23.722Z,85.02
2019-01-12T09:27:53.445Z,85.00
2019-01-12T09:30:23.791Z,84.94
2019-01-12T09:32:54.278Z,84.80
2019-01-12T09:35:24.003Z,84.77
2019-01-12T09:37:53.573Z,84.74
2019-01-12T09:40:23.699Z,84.69
2019-01-12T09:42:53.627Z,84.66
2019-01-12T09:45:23.539Z,84.71
2019-01-12T09:47:53.684Z,84.71
2019-01-12T09:50:23.726Z,84.70
2019-01-12T09:52:53.390Z,84.61
2019-01-12T09:55:23.316Z,84.56
2019-01-12T09:57:53.023Z,84.49
2019-01-12T10:00:25.067Z,84.40
2019-01-12T10:02:54.653Z,84.36
2019-01-12T10:05:24.394Z,84.27
2019-01-12T10:07:54.298Z,84.31
2019-01-12T10:10:24.288Z,84.38
2019-01-12T10:12:54.033Z,84.37
2019-01-12T10:15:23.746Z,84.40
2019-01-12T10:17:53.407Z,84.43
2019-01-12T10:20:22.987Z,84.42
2019-01-12T10:22:53.949Z,84.31
2019-01-12T10:25:25.108Z,84.26
2019-01-12T10:27:54.729Z,84.22
2019-01-12T10:30:26.329Z,84.14
2019-01-12T10:32:56.294Z,84.04
2019-01-12T10:35:26.195Z,83.86
2019-01-12T10:37:56.186Z,83.75
2019-01-12T10:40:26.388Z,83.67
2019-01-12T10:42:56.398Z,83.56
2019-01-12T10:45:28.388Z,83.39
2019-01-12T10:47:58.165Z,83.34
2019-01-12T10:50:35.613Z,83.33
2019-01-12T10:53:06.467Z,83.28
2019-01-12T10:55:39.537Z,83.25
2019-01-12T10:58:11.914Z,83.13
2019-01-12T11:00:42.082Z,83.06
2019-01-12T11:03:11.915Z,83.02
2019-01-12T11:05:41.717Z,82.99
2019-01-12T11:08:11.667Z,82.95
2019-01-12T11:10:41.388Z,82.89
2019-01-12T11:13:11.551Z,82.82
2019-01-12T11:15:41.818Z,82.88
2019-01-12T11:18:11.670Z,82.95
2019-01-12T11:20:41.487Z,82.97
2019-01-12T11:23:11.658Z,82.91
2019-01-12T11:25:42.964Z,82.85
2019-01-12T11:28:13.090Z,82.80
2019-01-12T11:30:42.737Z,82.77
2019-01-12T11:33:12.346Z,82.72
2019-01-12T11:35:42.244Z,82.57
2019-01-12T11:38:14.059Z,82.47
2019-01-12T11:40:46.777Z,82.40
2019-01-12T11:43:16.809Z,82.33
2019-01-12T11:45:46.437Z,82.25
2019-01-12T11:48:16.526Z,82.17
2019-01-12T11:50:46.148Z,82.14
2019-01-12T11:53:15.728Z,82.13
2019-01-12T11:55:45.532Z,82.03
2019-01-12T11:58:18.224Z,82.09
2019-01-12T12:00:48.045Z,82.05
2019-01-12T12:03:17.586Z,81.99
2019-01-12T12:05:50.639Z,81.88
2019-01-12T12:08:20.162Z,81.78
2019-01-12T12:10:51.664Z,81.73
2019-01-12T12:13:21.355Z,81.74
2019-01-12T12:15:51.628Z,81.62
2019-01-12T12:18:21.267Z,81.52
2019-01-12T12:20:52.832Z,81.49
2019-01-12T12:23:23.381Z,81.40
2019-01-12T12:25:55.795Z,81.29
2019-01-12T12:28:25.747Z,81.20
2019-01-12T12:30:55.489Z,81.10
2019-01-12T12:33:25.557Z,80.98
2019-01-12T12:35:55.399Z,80.93
2019-01-12T12:38:25.228Z,80.71
2019-01-12T12:40:55.009Z,80.70
2019-01-12T12:43:24.815Z,80.65
2019-01-12T12:45:54.532Z,80.64
2019-01-12T12:48:25.523Z,80.56
2019-01-12T12:50:55.400Z,80.49
2019-01-12T12:53:25.013Z,80.47
2019-01-12T12:55:54.909Z,80.53
2019-01-12T12:58:24.634Z,80.57
2019-01-12T13:00:54.355Z,80.56
2019-01-12T13:03:23.986Z,80.64
2019-01-12T13:05:54.009Z,80.68
2019-01-12T13:08:23.640Z,80.72
2019-01-12T13:10:53.353Z,80.84
2019-01-12T13:13:23.172Z,80.93
2019-01-12T13:15:52.939Z,80.98
2019-01-12T13:18:22.542Z,81.01
2019-01-12T13:20:52.308Z,81.04
2019-01-12T13:23:21.945Z,81.29
2019-01-12T13:25:51.554Z,81.29
2019-01-12T13:28:21.449Z,81.38
2019-01-12T13:30:51.067Z,81.45
2019-01-12T13:33:20.701Z,81.45
2019-01-12T13:35:50.617Z,81.49
2019-01-12T13:38:20.189Z,81.51
2019-01-12T13:40:49.799Z,81.51
2019-01-12T13:43:19.588Z,81.58
2019-01-12T13:45:49.198Z,81.46
2019-01-12T13:48:18.955Z,81.46
2019-01-12T13:50:48.878Z,81.69
2019-01-12T13:53:18.572Z,81.73
2019-01-12T13:55:48.245Z,82.25
2019-01-12T13:58:18.079Z,82.25
2019-01-12T14:00:47.754Z,82.26
2019-01-12T14:03:17.608Z,82.18
2019-01-12T14:05:47.389Z,82.42
2019-01-12T14:08:17.048Z,82.42
2019-01-12T14:10:46.659Z,82.32
2019-01-12T14:13:16.851Z,82.48
2019-01-12T14:15:46.626Z,82.32
2019-01-12T14:18:22.453Z,82.23
2019-01-12T14:20:48.607Z,82.35
2019-01-12T14:23:19.109Z,82.50
2019-01-12T14:25:49.028Z,82.57
2019-01-12T14:28:18.557Z,82.62
2019-01-12T14:30:48.327Z,82.59
2019-01-12T14:33:18.395Z,82.59
2019-01-12T14:35:48.040Z,82.64
2019-01-12T14:38:17.671Z,82.62
2019-01-12T14:40:47.447Z,82.66
2019-01-12T14:43:17.284Z,82.73
2019-01-12T14:45:46.976Z,82.76
2019-01-12T14:48:16.679Z,82.77
2019-01-12T14:50:46.268Z,82.78
2019-01-12T14:53:15.917Z,82.91
2019-01-12T14:55:45.747Z,82.84
2019-01-12T14:58:15.545Z,82.84
2019-01-12T15:00:45.253Z,82.82
2019-01-12T15:03:15.083Z,82.71
2019-01-12T15:05:44.739Z,82.53
2019-01-12T15:08:14.343Z,82.48
2019-01-12T15:10:44.178Z,82.44
2019-01-12T15:13:14.005Z,82.09
2019-01-12T15:15:43.655Z,82.18
2019-01-12T15:18:13.527Z,82.18
2019-01-12T15:20:43.258Z,82.57
2019-01-12T15:23:12.903Z,82.59
2019-01-12T15:25:42.839Z,82.77
2019-01-12T15:28:12.468Z,82.79
2019-01-12T15:30:42.141Z,82.94
2019-01-12T15:33:12.925Z,82.91
2019-01-12T15:35:44.360Z,83.14
2019-01-12T15:38:14.331Z,83.14
2019-01-12T15:40:43.870Z,82.83
2019-01-12T15:43:13.596Z,82.82
2019-01-12T15:45:43.867Z,82.88
2019-01-12T15:48:13.570Z,82.86
2019-01-12T15:50:43.300Z,82.79
2019-01-12T15:53:13.551Z,82.68
2019-01-12T15:55:43.181Z,82.60
2019-01-12T15:58:16.311Z,82.51
2019-01-12T16:00:44.549Z,82.52
2019-01-12T16:03:14.369Z,82.36
2019-01-12T16:05:44.150Z,82.19
2019-01-12T16:08:14.251Z,82.08
2019-01-12T16:10:44.037Z,81.97
2019-01-12T16:13:14.026Z,81.87
2019-01-12T16:15:44.031Z,81.87
2019-01-12T16:18:13.816Z,81.41
2019-01-12T16:20:43.956Z,81.35
2019-01-12T16:23:16.781Z,81.24
2019-01-12T16:25:46.502Z,80.91
2019-01-12T16:28:23.076Z,80.73
2019-01-12T16:30:48.615Z,80.64
2019-01-12T16:33:18.246Z,80.43
2019-01-12T16:35:48.281Z,80.22
2019-01-12T16:38:18.849Z,80.04
2019-01-12T16:40:48.435Z,79.93
2019-01-12T16:43:18.370Z,79.84
2019-01-12T16:45:48.127Z,80.02
2019-01-12T16:48:17.845Z,80.19
2019-01-12T16:50:47.401Z,80.37
2019-01-12T16:53:17.157Z,80.54
2019-01-12T16:55:46.857Z,80.87
2019-01-12T16:58:16.558Z,81.15
2019-01-12T17:00:46.387Z,81.14
2019-01-12T17:03:15.973Z,81.09
2019-01-12T17:05:45.580Z,81.22
2019-01-12T17:08:15.746Z,81.38
2019-01-12T17:10:45.527Z,81.52
2019-01-12T17:13:15.199Z,81.55
2019-01-12T17:15:45.449Z,81.50
2019-01-12T17:18:15.271Z,81.46
2019-01-12T17:20:45.097Z,81.41
2019-01-12T17:23:15.047Z,81.39
2019-01-12T17:25:44.887Z,81.36
2019-01-12T17:28:14.681Z,81.51
2019-01-12T17:30:47.155Z,81.66
2019-01-12T17:33:16.926Z,81.75
2019-01-12T17:35:46.505Z,81.80
2019-01-12T17:38:16.332Z,81.83
2019-01-12T17:40:45.991Z,81.84
2019-01-12T17:43:15.761Z,81.91
2019-01-12T17:45:45.754Z,82.04
2019-01-12T17:48:15.615Z,82.11
2019-01-12T17:50:45.441Z,82.11
2019-01-12T17:53:15.443Z,82.14
2019-01-12T17:55:45.279Z,82.18
2019-01-12T17:58:15.138Z,82.23
2019-01-12T18:00:50.211Z,82.18
2019-01-12T18:03:19.827Z,82.21
2019-01-12T18:05:49.467Z,82.17
2019-01-12T18:08:19.508Z,82.15
2019-01-12T18:10:49.035Z,82.14
2019-01-12T18:13:18.838Z,82.23
2019-01-12T18:15:48.535Z,82.20
2019-01-12T18:18:18.180Z,82.12
2019-01-12T18:20:47.919Z,82.04
2019-01-12T18:23:18.046Z,82.01
2019-01-12T18:25:47.856Z,81.93
2019-01-12T18:28:17.496Z,81.58
2019-01-12T18:30:47.509Z,81.30
2019-01-12T18:33:17.186Z,81.20
2019-01-12T18:35:46.901Z,81.01
2019-01-12T18:38:18.252Z,80.79
2019-01-12T18:40:47.928Z,80.76
2019-01-12T18:43:17.688Z,80.82
2019-01-12T18:45:47.336Z,80.94
2019-01-12T18:48:17.016Z,81.02
2019-01-12T18:50:46.745Z,81.22
2019-01-12T18:53:16.621Z,81.33
2019-01-12T18:55:46.759Z,81.38
2019-01-12T18:58:16.557Z,81.33
2019-01-12T19:00:46.363Z,81.25
2019-01-12T19:03:16.407Z,81.25
2019-01-12T19:05:46.464Z,81.11
2019-01-12T19:08:16.525Z,81.03
2019-01-12T19:10:46.205Z,81.02
2019-01-12T19:13:16.433Z,81.14
2019-01-12T19:15:46.390Z,81.30
2019-01-12T19:18:16.589Z,81.44
2019-01-12T19:20:48.686Z,81.54
2019-01-12T19:23:18.386Z,81.70
2019-01-12T19:25:48.236Z,81.94
2019-01-12T19:28:18.371Z,82.19
2019-01-12T19:30:48.646Z,82.25
2019-01-12T19:33:18.314Z,82.27
2019-01-12T19:35:48.214Z,82.39
2019-01-12T19:38:18.349Z,82.50
2019-01-12T19:40:47.956Z,82.68
2019-01-12T19:43:17.907Z,82.69
2019-01-12T19:45:47.619Z,82.80
2019-01-12T19:48:17.383Z,82.78
2019-01-12T19:50:47.200Z,82.91
2019-01-12T19:53:16.932Z,82.89
2019-01-12T19:55:46.586Z,82.98
2019-01-12T19:58:16.315Z,82.98
2019-01-12T20:00:46.053Z,82.95
2019-01-12T20:03:15.586Z,82.94
2019-01-12T20:05:45.627Z,82.87
2019-01-12T20:08:15.611Z,82.85
2019-01-12T20:10:45.500Z,82.82
2019-01-12T20:13:15.793Z,82.80
2019-01-12T20:15:45.466Z,82.86
2019-01-12T20:18:15.046Z,82.97
2019-01-12T20:20:45.061Z,83.00
2019-01-12T20:23:14.815Z,83.12
2019-01-12T20:25:45.440Z,83.22
2019-01-12T20:28:17.984Z,83.46
2019-01-12T20:30:54.420Z,83.42
2019-01-12T20:33:36.489Z,83.46
2019-01-12T20:36:48.420Z,83.42
2019-01-12T20:40:14.118Z,83.40
2019-01-12T20:43:12.154Z,83.49
2019-01-12T20:46:17.179Z,83.61
2019-01-12T20:49:16.932Z,83.94
2019-01-12T20:52:30.565Z,84.01
2019-01-12T20:55:49.183Z,84.21
2019-01-12T20:58:48.988Z,84.52
2019-01-12T21:01:54.904Z,84.71
2019-01-12T21:04:53.654Z,84.92
2019-01-12T21:08:07.426Z,85.16
2019-01-12T21:11:15.157Z,84.99
2019-01-12T21:14:07.642Z,85.14
2019-01-12T21:16:49.886Z,85.05
2019-01-12T21:19:19.497Z,85.06
2019-01-12T21:21:49.070Z,85.24
2019-01-12T21:24:18.854Z,85.39
2019-01-12T21:26:48.416Z,85.35
2019-01-12T21:29:17.938Z,85.33
2019-01-12T21:31:47.765Z,85.37
2019-01-12T21:34:17.549Z,85.35
2019-01-12T21:36:47.198Z,85.28
2019-01-12T21:39:17.024Z,85.36
2019-01-12T21:41:48.118Z,85.48
2019-01-12T21:44:18.031Z,85.38
2019-01-12T21:46:47.813Z,85.45
2019-01-12T21:49:17.726Z,85.35
2019-01-12T21:51:47.633Z,85.16
2019-01-12T21:54:17.372Z,85.37
2019-01-12T21:56:47.115Z,85.49
2019-01-12T21:59:17.123Z,85.28
2019-01-12T22:01:46.647Z,85.42
2019-01-12T22:04:16.275Z,85.67
2019-01-12T22:06:46.051Z,85.75
2019-01-12T22:09:17.065Z,85.60
2019-01-12T22:11:46.704Z,85.62
2019-01-12T22:14:17.769Z,85.79
2019-01-12T22:16:47.440Z,85.69
2019-01-12T22:19:17.427Z,85.81
2019-01-12T22:21:47.105Z,85.68
2019-01-12T22:24:18.115Z,85.67
2019-01-12T22:26:47.883Z,85.73
2019-01-12T22:29:17.769Z,85.72
2019-01-12T22:31:47.361Z,85.78
2019-01-12T22:34:17.147Z,85.43
2019-01-12T22:36:46.830Z,85.63
2019-01-12T22:39:16.389Z,85.55
2019-01-12T22:41:46.295Z,85.79
2019-01-12T22:44:16.089Z,85.84
2019-01-12T22:46:45.773Z,85.97
2019-01-12T22:49:18.724Z,85.94
2019-01-12T22:51:48.341Z,85.52
2019-01-12T22:54:17.938Z,85.66
2019-01-12T22:56:47.978Z,85.76
2019-01-12T22:59:17.629Z,85.76
2019-01-12T23:01:57.311Z,85.63
2019-01-12T23:04:28.417Z,85.69
2019-01-12T23:06:58.262Z,85.68
2019-01-12T23:09:28.042Z,85.57
2019-01-12T23:11:57.699Z,85.58
2019-01-12T23:14:27.753Z,85.43
2019-01-12T23:16:57.491Z,85.58
2019-01-12T23:19:27.413Z,85.67
2019-01-12T23:21:57.237Z,85.72
2019-01-12T23:24:26.951Z,85.46
2019-01-12T23:26:56.865Z,85.27
2019-01-12T23:29:26.821Z,85.41
2019-01-12T23:31:56.687Z,85.27
2019-01-12T23:34:26.332Z,85.42
2019-01-12T23:36:56.328Z,85.41
2019-01-12T23:39:25.985Z,85.48
2019-01-12T23:41:55.640Z,85.29
2019-01-12T23:44:25.472Z,85.28
2019-01-12T23:46:55.225Z,85.31
2019-01-12T23:49:24.918Z,85.36
2019-01-12T23:51:54.700Z,85.27
2019-01-12T23:54:24.546Z,85.25
2019-01-12T23:56:54.261Z,85.21
2019-01-12T23:59:24.018Z,85.22
